createdAt,value
2019-03-15T00:01:34.532Z,100195.97
2019-03-15T00:04:04.485Z,100192.05
2019-03-15T00:06:34.356Z,100184.89
2019-03-15T00:09:07.434Z,100192.55
2019-03-15T00:11:38.402Z,100205.77
2019-03-15T00:14:08.387Z,100205.54
2019-03-15T00:16:38.354Z,100205.90
2019-03-15T00:19:08.251Z,100210.20
2019-03-15T00:21:38.143Z,100203.75
2019-03-15T00:24:07.957Z,100209.84
2019-03-15T00:26:38.164Z,100218.08
2019-03-15T00:29:08.095Z,100215.58
2019-03-15T00:31:37.989Z,100227.17
2019-03-15T00:34:08.800Z,100221.91
2019-03-15T00:36:38.582Z,100216.17
2019-03-15T00:39:08.533Z,100207.34
2019-03-15T00:41:38.398Z,100208.66
2019-03-15T00:44:08.237Z,100208.64
2019-03-15T00:46:38.006Z,100218.08
2019-03-15T00:49:08.204Z,100220.70
2019-03-15T00:51:38.437Z,100216.41
2019-03-15T00:54:08.394Z,100219.39
2019-03-15T00:56:38.263Z,100216.17
2019-03-15T00:59:08.188Z,100214.50
2019-03-15T01:01:38.011Z,100215.81
2019-03-15T01:04:09.507Z,100214.02
2019-03-15T01:06:41.084Z,100216.77
2019-03-15T01:09:10.885Z,100216.41
2019-03-15T01:11:40.844Z,100206.51
2019-03-15T01:14:11.138Z,100207.34
2019-03-15T01:16:41.074Z,100214.98
2019-03-15T01:19:10.957Z,100208.77
2019-03-15T01:21:40.825Z,100210.20
2019-03-15T01:24:11.050Z,100205.90
2019-03-15T01:26:41.198Z,100208.89
2019-03-15T01:29:11.316Z,100208.66
2019-03-15T01:31:42.236Z,100201.60
2019-03-15T01:34:12.393Z,100196.50
2019-03-15T01:36:42.263Z,100192.20
2019-03-15T01:39:13.548Z,100198.61
2019-03-15T01:41:43.678Z,100200.91
2019-03-15T01:44:14.099Z,100199.23
2019-03-15T01:46:44.222Z,100211.05
2019-03-15T01:49:14.099Z,100200.91
2019-03-15T01:51:43.950Z,100205.44
2019-03-15T01:54:13.827Z,100203.88
2019-03-15T01:56:43.980Z,100190.51
2019-03-15T01:59:13.760Z,100190.15
2019-03-15T02:01:43.609Z,100188.47
2019-03-15T02:04:13.447Z,100187.52
2019-03-15T02:06:43.909Z,100191.33
2019-03-15T02:09:14.428Z,100181.09
2019-03-15T02:11:44.274Z,100186.56
2019-03-15T02:14:14.213Z,100179.17
2019-03-15T02:16:44.139Z,100179.64
2019-03-15T02:19:14.033Z,100187.16
2019-03-15T02:21:43.939Z,100186.80
2019-03-15T02:24:14.042Z,100190.51
2019-03-15T02:26:43.893Z,100189.20
2019-03-15T02:29:13.867Z,100193.36
2019-03-15T02:31:43.810Z,100185.96
2019-03-15T02:34:13.596Z,100193.00
2019-03-15T02:36:44.062Z,100185.84
2019-03-15T02:39:14.257Z,100175.94
2019-03-15T02:41:44.218Z,100187.75
2019-03-15T02:44:14.190Z,100182.27
2019-03-15T02:46:44.289Z,100174.39
2019-03-15T02:49:14.439Z,100169.50
2019-03-15T02:51:44.366Z,100169.39
2019-03-15T02:54:14.213Z,100177.15
2019-03-15T02:56:44.108Z,100171.75
2019-03-15T02:59:13.953Z,100170.92
2019-03-15T03:01:44.918Z,100173.31
2019-03-15T03:04:14.798Z,100173.67
2019-03-15T03:06:46.207Z,100171.88
2019-03-15T03:09:16.066Z,100172.84
2019-03-15T03:11:46.004Z,100173.08
2019-03-15T03:14:15.782Z,100183.22
2019-03-15T03:16:46.224Z,100189.78
2019-03-15T03:19:16.996Z,100190.73
2019-03-15T03:21:47.250Z,100178.56
2019-03-15T03:24:17.746Z,100191.33
2019-03-15T03:26:47.588Z,100183.81
2019-03-15T03:29:19.281Z,100180.47
2019-03-15T03:31:49.785Z,100184.05
2019-03-15T03:34:19.581Z,100181.91
2019-03-15T03:36:49.454Z,100179.40
2019-03-15T03:39:19.704Z,100175.09
2019-03-15T03:41:49.486Z,100165.44
2019-03-15T03:44:20.387Z,100165.44
2019-03-15T03:46:50.161Z,100154.09
2019-03-15T03:49:20.015Z,100153.26
2019-03-15T03:51:49.967Z,100153.98
2019-03-15T03:54:20.228Z,100147.19
2019-03-15T03:56:50.172Z,100150.53
2019-03-15T03:59:20.105Z,100146.83
2019-03-15T04:01:50.344Z,100137.41
2019-03-15T04:04:20.515Z,100142.03
2019-03-15T04:06:50.445Z,100141.56
2019-03-15T04:09:20.701Z,100129.53
2019-03-15T04:11:55.762Z,100129.38
2019-03-15T04:14:22.785Z,100121.86
2019-03-15T04:16:52.674Z,100120.44
2019-03-15T04:19:23.234Z,100124.25
2019-03-15T04:21:53.188Z,100113.39
2019-03-15T04:24:25.006Z,100116.02
2019-03-15T04:26:55.548Z,100127.48
2019-03-15T04:29:25.312Z,100126.29
2019-03-15T04:31:55.567Z,100119.36
2019-03-15T04:34:28.204Z,100123.17
2019-03-15T04:36:57.454Z,100127.23
2019-03-15T04:39:27.313Z,100109.70
2019-03-15T04:41:57.089Z,100116.50
2019-03-15T04:44:26.883Z,100125.33
2019-03-15T04:46:56.733Z,100117.45
2019-03-15T04:49:26.519Z,100118.17
2019-03-15T04:51:56.769Z,100126.53
2019-03-15T04:54:26.646Z,100121.16
2019-03-15T04:56:56.813Z,100128.44
2019-03-15T04:59:26.876Z,100123.19
2019-03-15T05:01:57.195Z,100121.40
2019-03-15T05:04:27.085Z,100123.78
2019-03-15T05:06:57.120Z,100121.27
2019-03-15T05:09:27.443Z,100117.45
2019-03-15T05:11:57.284Z,100120.91
2019-03-15T05:14:27.162Z,100114.34
2019-03-15T05:16:57.197Z,100111.95
2019-03-15T05:19:27.115Z,100115.20
2019-03-15T05:21:57.632Z,100106.13
2019-03-15T05:24:27.540Z,100111.86
2019-03-15T05:26:57.477Z,100101.00
2019-03-15T05:29:27.415Z,100102.31
2019-03-15T05:31:57.353Z,100100.05
2019-03-15T05:34:27.151Z,100094.80
2019-03-15T05:36:57.420Z,100090.38
2019-03-15T05:39:27.344Z,100087.75
2019-03-15T05:41:57.286Z,100080.23
2019-03-15T05:44:27.046Z,100083.34
2019-03-15T05:46:56.876Z,100074.03
2019-03-15T05:49:26.647Z,100066.51
2019-03-15T05:51:56.719Z,100064.69
2019-03-15T05:54:27.244Z,100063.61
2019-03-15T05:56:57.191Z,100064.21
2019-03-15T05:59:27.267Z,100060.87
2019-03-15T06:01:57.636Z,100062.53
2019-03-15T06:04:27.481Z,100064.69
2019-03-15T06:06:57.322Z,100058.36
2019-03-15T06:09:27.222Z,100055.58
2019-03-15T06:11:57.194Z,100053.67
2019-03-15T06:14:27.717Z,100050.80
2019-03-15T06:16:57.591Z,100049.02
2019-03-15T06:19:27.440Z,100047.22
2019-03-15T06:21:57.655Z,100049.72
2019-03-15T06:24:27.720Z,100039.70
2019-03-15T06:26:57.574Z,100032.53
2019-03-15T06:29:27.449Z,100030.73
2019-03-15T06:31:57.375Z,100025.72
2019-03-15T06:34:27.260Z,100022.14
2019-03-15T06:36:57.066Z,100018.67
2019-03-15T06:39:27.090Z,100020.47
2019-03-15T06:41:57.172Z,100021.78
2019-03-15T06:44:27.462Z,100019.98
2019-03-15T06:46:57.327Z,100011.27
2019-03-15T06:49:27.216Z,100013.42
2019-03-15T06:51:57.167Z,100010.67
2019-03-15T06:54:28.106Z,100005.73
2019-03-15T06:56:58.227Z,100003.95
2019-03-15T06:59:29.147Z,100001.80
2019-03-15T07:02:00.101Z,100001.80
2019-03-15T07:04:30.223Z,99991.64
2019-03-15T07:07:00.395Z,100007.77
2019-03-15T07:09:31.148Z,100002.43
2019-03-15T07:12:09.165Z,99999.45
2019-03-15T07:14:32.948Z,99995.86
2019-03-15T07:17:02.889Z,99989.50
2019-03-15T07:19:33.036Z,99976.23
2019-03-15T07:22:02.811Z,99972.53
2019-03-15T07:24:32.585Z,99977.45
2019-03-15T07:27:12.889Z,99972.55
2019-03-15T07:29:35.141Z,99963.94
2019-03-15T07:32:05.079Z,99948.02
2019-03-15T07:34:35.241Z,99958.88
2019-03-15T07:37:05.089Z,99958.16
2019-03-15T07:39:35.225Z,99955.05
2019-03-15T07:42:05.211Z,99944.41
2019-03-15T07:44:35.356Z,99944.76
2019-03-15T07:47:05.280Z,99935.44
2019-03-15T07:49:35.075Z,99938.17
2019-03-15T07:52:05.006Z,99937.20
2019-03-15T07:54:38.333Z,99930.48
2019-03-15T07:57:07.405Z,99921.76
2019-03-15T07:59:37.263Z,99918.45
2019-03-15T08:02:07.173Z,99915.19
2019-03-15T08:04:37.032Z,99919.97
2019-03-15T08:07:07.187Z,99912.56
2019-03-15T08:09:37.044Z,99909.33
2019-03-15T08:12:06.919Z,99917.56
2019-03-15T08:14:36.782Z,99913.62
2019-03-15T08:17:06.728Z,99912.30
2019-03-15T08:19:36.513Z,99916.34
2019-03-15T08:22:06.436Z,99912.28
2019-03-15T08:24:36.855Z,99909.30
2019-03-15T08:27:06.787Z,99903.78
2019-03-15T08:29:36.626Z,99907.13
2019-03-15T08:32:06.553Z,99906.64
2019-03-15T08:34:36.754Z,99898.11
2019-03-15T08:37:06.709Z,99904.78
2019-03-15T08:39:36.552Z,99900.84
2019-03-15T08:42:06.515Z,99898.21
2019-03-15T08:44:36.785Z,99898.91
2019-03-15T08:47:06.634Z,99901.77
2019-03-15T08:49:36.559Z,99904.88
2019-03-15T08:52:06.513Z,99902.25
2019-03-15T08:54:36.747Z,99898.31
2019-03-15T08:57:06.964Z,99899.97
2019-03-15T08:59:37.139Z,99891.83
2019-03-15T09:02:07.005Z,99897.44
2019-03-15T09:04:36.875Z,99896.80
2019-03-15T09:07:06.813Z,99903.73
2019-03-15T09:09:36.762Z,99901.45
2019-03-15T09:12:07.851Z,99900.23
2019-03-15T09:14:38.858Z,99912.16
2019-03-15T09:17:08.957Z,99905.80
2019-03-15T09:19:39.177Z,99905.19
2019-03-15T09:22:09.315Z,99906.09
2019-03-15T09:24:39.188Z,99903.42
2019-03-15T09:27:10.493Z,99908.29
2019-03-15T09:29:40.600Z,99901.16
2019-03-15T09:32:10.527Z,99903.75
2019-03-15T09:34:40.485Z,99894.81
2019-03-15T09:37:10.377Z,99899.50
2019-03-15T09:39:41.327Z,99899.81
2019-03-15T09:42:11.288Z,99918.59
2019-03-15T09:44:41.157Z,99910.98
2019-03-15T09:47:11.353Z,99906.40
2019-03-15T09:49:41.237Z,99894.00
2019-03-15T09:52:11.440Z,99909.23
2019-03-15T09:54:41.717Z,99904.87
2019-03-15T09:57:11.568Z,99900.88
2019-03-15T09:59:41.528Z,99903.77
2019-03-15T10:02:11.378Z,99919.03
2019-03-15T10:04:41.934Z,99918.76
2019-03-15T10:07:11.908Z,99913.52
2019-03-15T10:09:46.081Z,99916.02
2019-03-15T10:12:14.462Z,99905.20
2019-03-15T10:14:44.326Z,99939.27
2019-03-15T10:17:14.186Z,99932.58
2019-03-15T10:19:44.065Z,99926.67
2019-03-15T10:22:14.025Z,99914.88
2019-03-15T10:24:44.990Z,99917.52
2019-03-15T10:27:14.917Z,99923.83
2019-03-15T10:29:44.775Z,99917.41
2019-03-15T10:32:14.662Z,99927.19
2019-03-15T10:34:44.601Z,99924.41
2019-03-15T10:37:14.530Z,99932.33
2019-03-15T10:39:44.701Z,99942.74
2019-03-15T10:42:14.548Z,99929.41
2019-03-15T10:44:44.327Z,99942.81
2019-03-15T10:47:14.181Z,99937.88
2019-03-15T10:49:44.053Z,99941.34
2019-03-15T10:52:14.257Z,99956.38
2019-03-15T10:54:44.474Z,99949.64
2019-03-15T10:57:14.406Z,99957.56
2019-03-15T10:59:44.541Z,99956.80
2019-03-15T11:02:14.883Z,99948.19
2019-03-15T11:04:45.097Z,99950.89
2019-03-15T11:07:14.979Z,99963.25
2019-03-15T11:09:45.132Z,99964.36
2019-03-15T11:12:14.975Z,99968.60
2019-03-15T11:14:45.060Z,99969.09
2019-03-15T11:17:15.047Z,99979.50
2019-03-15T11:19:45.028Z,99985.47
2019-03-15T11:22:14.976Z,99977.55
2019-03-15T11:24:44.915Z,99983.53
2019-03-15T11:27:15.199Z,99974.64
2019-03-15T11:29:45.176Z,100003.03
2019-03-15T11:32:15.127Z,100001.75
2019-03-15T11:34:45.016Z,100003.14
2019-03-15T11:37:14.909Z,100011.89
2019-03-15T11:39:44.818Z,100005.70
2019-03-15T11:42:15.093Z,100005.08
2019-03-15T11:44:45.061Z,99994.37
2019-03-15T11:47:14.988Z,100015.84
2019-03-15T11:49:44.773Z,100012.72
2019-03-15T11:52:14.713Z,100009.28
2019-03-15T11:54:44.928Z,99995.80
2019-03-15T11:57:14.868Z,100003.23
2019-03-15T11:59:44.732Z,100008.71
2019-03-15T12:02:14.676Z,100031.22
2019-03-15T12:04:44.623Z,100003.84
2019-03-15T12:07:14.425Z,100007.14
2019-03-15T12:09:44.771Z,100017.42
2019-03-15T12:12:14.640Z,100016.99
2019-03-15T12:14:45.387Z,100013.37
2019-03-15T12:17:15.314Z,100015.25
2019-03-15T12:19:45.554Z,100015.97
2019-03-15T12:22:15.366Z,100008.05
2019-03-15T12:24:45.295Z,100024.17
2019-03-15T12:27:15.500Z,100013.61
2019-03-15T12:29:46.072Z,100001.16
2019-03-15T12:32:16.722Z,100013.09
2019-03-15T12:34:46.822Z,99995.64
2019-03-15T12:37:16.744Z,100006.52
2019-03-15T12:39:46.696Z,99998.59
2019-03-15T12:42:16.884Z,100003.88
2019-03-15T12:44:47.135Z,100011.80
2019-03-15T12:47:17.134Z,100012.81
2019-03-15T12:49:47.263Z,100000.92
2019-03-15T12:52:20.496Z,100013.44
2019-03-15T12:54:49.491Z,100003.56
2019-03-15T12:57:19.437Z,100034.60
2019-03-15T12:59:50.922Z,100021.05
2019-03-15T13:02:20.953Z,100017.77
2019-03-15T13:04:52.205Z,100013.30
2019-03-15T13:07:22.236Z,100030.81
2019-03-15T13:09:52.016Z,100032.94
2019-03-15T13:12:21.908Z,100023.06
2019-03-15T13:14:51.782Z,100014.30
2019-03-15T13:17:21.633Z,100030.64
2019-03-15T13:19:55.419Z,100014.79
2019-03-15T13:22:23.554Z,100031.39
2019-03-15T13:24:53.681Z,100012.80
2019-03-15T13:27:23.870Z,100007.44
2019-03-15T13:29:54.382Z,100022.66
2019-03-15T13:32:24.368Z,100029.95
2019-03-15T13:34:54.165Z,100004.41
2019-03-15T13:37:24.467Z,100002.62
2019-03-15T13:39:54.730Z,100013.05
2019-03-15T13:42:26.993Z,100001.16
2019-03-15T13:44:57.223Z,100002.96
2019-03-15T13:47:28.128Z,99998.98
2019-03-15T13:49:58.006Z,100015.52
2019-03-15T13:52:27.943Z,100022.44
2019-03-15T13:54:58.214Z,100004.90
2019-03-15T13:57:28.162Z,100022.22
2019-03-15T13:59:58.252Z,100005.53
2019-03-15T14:02:28.523Z,100062.70
2019-03-15T14:04:58.393Z,100013.11
2019-03-15T14:07:28.299Z,100002.89
2019-03-15T14:09:58.255Z,100009.49
2019-03-15T14:12:28.037Z,99998.92
2019-03-15T14:14:57.915Z,100008.38
2019-03-15T14:17:27.700Z,100032.65
2019-03-15T14:19:57.485Z,100008.91
2019-03-15T14:22:27.269Z,99996.02
2019-03-15T14:24:57.541Z,100026.41
2019-03-15T14:27:37.029Z,99988.63
2019-03-15T14:29:59.137Z,100015.25
2019-03-15T14:32:28.974Z,100004.78
2019-03-15T14:34:58.770Z,100019.63
2019-03-15T14:37:28.903Z,100010.92
2019-03-15T14:39:58.884Z,99995.05
2019-03-15T14:42:29.007Z,99993.59
2019-03-15T14:44:59.264Z,100022.72
2019-03-15T14:47:29.453Z,99975.12
2019-03-15T14:49:59.668Z,100006.02
2019-03-15T14:52:29.837Z,99994.41
2019-03-15T14:54:59.681Z,100005.04
2019-03-15T14:57:29.650Z,100021.34
2019-03-15T14:59:59.509Z,99999.85
2019-03-15T15:02:29.437Z,99995.55
2019-03-15T15:04:59.339Z,99989.96
2019-03-15T15:07:29.170Z,100005.33
2019-03-15T15:09:59.019Z,100012.92
2019-03-15T15:12:28.880Z,100003.81
2019-03-15T15:14:58.732Z,100007.59
2019-03-15T15:17:28.876Z,100013.91
2019-03-15T15:19:58.708Z,100026.63
2019-03-15T15:22:28.981Z,99999.36
2019-03-15T15:24:58.823Z,99988.30
2019-03-15T15:27:28.683Z,100020.66
2019-03-15T15:29:58.450Z,100001.66
2019-03-15T15:32:28.323Z,99994.37
2019-03-15T15:34:58.237Z,99985.61
2019-03-15T15:37:28.169Z,99973.69
2019-03-15T15:40:00.168Z,99981.23
2019-03-15T15:42:30.579Z,99995.42
2019-03-15T15:45:00.521Z,99984.02
2019-03-15T15:47:30.921Z,99990.91
2019-03-15T15:50:01.352Z,100037.44
2019-03-15T15:52:32.590Z,99978.31
2019-03-15T15:55:02.508Z,99976.88
2019-03-15T15:57:32.467Z,99982.44
2019-03-15T16:00:02.397Z,99989.47
2019-03-15T16:02:32.239Z,99967.84
2019-03-15T16:05:02.155Z,100000.81
2019-03-15T16:07:32.086Z,99978.30
2019-03-15T16:10:01.845Z,99972.88
2019-03-15T16:12:31.698Z,99969.69
2019-03-15T16:15:01.646Z,99987.20
2019-03-15T16:17:31.570Z,99971.75
2019-03-15T16:20:01.342Z,99976.69
2019-03-15T16:22:31.167Z,99972.45
2019-03-15T16:25:01.697Z,99965.89
2019-03-15T16:27:31.477Z,99988.72
2019-03-15T16:30:01.737Z,99981.83
2019-03-15T16:32:32.954Z,99962.06
2019-03-15T16:35:02.908Z,99975.27
2019-03-15T16:37:33.070Z,99983.55
2019-03-15T16:40:03.371Z,99983.55
2019-03-15T16:42:33.242Z,99974.98
2019-03-15T16:45:03.355Z,99970.83
2019-03-15T16:47:34.457Z,99982.11
2019-03-15T16:50:06.484Z,99966.09
2019-03-15T16:52:36.368Z,99983.70
2019-03-15T16:55:06.851Z,99989.75
2019-03-15T16:57:36.708Z,99999.48
2019-03-15T17:00:07.563Z,99977.18
2019-03-15T17:02:37.514Z,100013.33
2019-03-15T17:05:08.823Z,99980.31
2019-03-15T17:07:38.759Z,99984.91
2019-03-15T17:10:09.592Z,99980.25
2019-03-15T17:12:39.532Z,100006.84
2019-03-15T17:15:11.154Z,100066.88
2019-03-15T17:17:41.358Z,100014.84
2019-03-15T17:20:12.007Z,100004.22
2019-03-15T17:22:41.988Z,100000.05
2019-03-15T17:25:12.073Z,100004.16
2019-03-15T17:27:42.120Z,100006.16
2019-03-15T17:30:13.175Z,100041.64
2019-03-15T17:32:43.258Z,100014.89
2019-03-15T17:35:13.438Z,100026.22
2019-03-15T17:37:43.528Z,100012.19
2019-03-15T17:40:13.540Z,100040.87
2019-03-15T17:42:43.570Z,100032.82
2019-03-15T17:45:13.819Z,100037.89
2019-03-15T17:47:43.796Z,100061.52
2019-03-15T17:50:14.884Z,100061.23
2019-03-15T17:52:44.808Z,100042.69
2019-03-15T17:55:15.650Z,100047.27
2019-03-15T17:57:46.218Z,100056.38
2019-03-15T18:00:24.341Z,100047.97
2019-03-15T18:02:54.562Z,100076.03
2019-03-15T18:05:24.421Z,100065.13
2019-03-15T18:07:54.297Z,100087.64
2019-03-15T18:10:24.510Z,100069.27
2019-03-15T18:12:54.470Z,100069.89
2019-03-15T18:15:24.758Z,100085.16
2019-03-15T18:17:54.714Z,100093.98
2019-03-15T18:20:24.677Z,100131.41
2019-03-15T18:22:54.610Z,100127.55
2019-03-15T18:25:24.562Z,100115.46
2019-03-15T18:27:54.530Z,100132.81
2019-03-15T18:30:24.477Z,100128.37
2019-03-15T18:32:54.407Z,100114.06
2019-03-15T18:35:33.525Z,100120.52
2019-03-15T18:37:56.206Z,100136.75
2019-03-15T18:40:26.215Z,100139.03
2019-03-15T18:42:56.175Z,100144.31
2019-03-15T18:45:26.234Z,100149.05
2019-03-15T18:47:56.225Z,100140.17
2019-03-15T18:50:26.202Z,100145.15
2019-03-15T18:52:56.456Z,100156.88
2019-03-15T18:55:26.309Z,100161.10
2019-03-15T18:57:56.326Z,100163.91
2019-03-15T19:00:26.308Z,100169.18
2019-03-15T19:02:56.251Z,100178.80
2019-03-15T19:05:26.841Z,100183.59
2019-03-15T19:07:56.690Z,100180.26
2019-03-15T19:10:27.271Z,100189.97
2019-03-15T19:12:57.357Z,100187.81
2019-03-15T19:15:27.316Z,100181.84
2019-03-15T19:17:57.172Z,100190.72
2019-03-15T19:20:27.088Z,100188.08
2019-03-15T19:22:57.023Z,100192.03
2019-03-15T19:25:26.975Z,100198.62
2019-03-15T19:27:56.892Z,100210.71
2019-03-15T19:30:26.845Z,100222.92
2019-03-15T19:32:56.712Z,100217.44
2019-03-15T19:35:26.659Z,100225.70
2019-03-15T19:37:56.718Z,100242.93
2019-03-15T19:40:26.854Z,100242.70
2019-03-15T19:42:57.225Z,100254.96
2019-03-15T19:45:27.166Z,100269.47
2019-03-15T19:47:57.321Z,100259.69
2019-03-15T19:50:27.246Z,100256.67
2019-03-15T19:52:57.546Z,100256.47
2019-03-15T19:55:28.441Z,100259.18
2019-03-15T19:57:58.506Z,100262.83
2019-03-15T20:00:28.417Z,100270.86
2019-03-15T20:02:58.594Z,100288.45
2019-03-15T20:05:28.765Z,100289.78
2019-03-15T20:07:58.729Z,100295.04
2019-03-15T20:10:29.039Z,100317.23
2019-03-15T20:13:02.369Z,100328.13
2019-03-15T20:15:30.883Z,100331.95
2019-03-15T20:18:00.902Z,100332.31
2019-03-15T20:20:30.921Z,100334.22
2019-03-15T20:23:01.275Z,100334.83
2019-03-15T20:25:31.483Z,100332.91
2019-03-15T20:28:03.915Z,100342.25
2019-03-15T20:30:33.240Z,100346.31
2019-03-15T20:33:03.145Z,100333.91
2019-03-15T20:35:33.102Z,100334.74
2019-03-15T20:38:02.987Z,100339.65
2019-03-15T20:40:33.177Z,100335.70
2019-03-15T20:43:03.047Z,100339.29
2019-03-15T20:45:32.994Z,100359.15
2019-03-15T20:48:02.852Z,100351.49
2019-03-15T20:50:45.881Z,100354.00
2019-03-15T20:53:09.823Z,100361.30
2019-03-15T20:55:36.072Z,100371.23
2019-03-15T20:58:06.142Z,100367.88
2019-03-15T21:00:36.425Z,100357.72
2019-03-15T21:03:06.420Z,100353.65
2019-03-15T21:05:36.802Z,100349.22
2019-03-15T21:08:06.805Z,100363.70
2019-03-15T21:10:37.483Z,100357.59
2019-03-15T21:13:07.425Z,100346.83
2019-03-15T21:15:37.380Z,100353.17
2019-03-15T21:18:07.346Z,100346.70
2019-03-15T21:20:37.662Z,100349.94
2019-03-15T21:23:07.603Z,100350.06
2019-03-15T21:25:37.476Z,100354.48
2019-03-15T21:28:07.399Z,100356.40
2019-03-15T21:30:47.784Z,100367.79
2019-03-15T21:33:09.458Z,100384.05
2019-03-15T21:35:39.401Z,100385.48
2019-03-15T21:38:09.780Z,100387.16
2019-03-15T21:40:40.335Z,100383.22
2019-03-15T21:43:10.223Z,100385.25
2019-03-15T21:45:40.154Z,100383.93
2019-03-15T21:48:10.160Z,100388.59
2019-03-15T21:50:40.135Z,100390.17
2019-03-15T21:53:10.097Z,100395.28
2019-03-15T21:55:40.618Z,100400.20
2019-03-15T21:58:10.544Z,100404.02
2019-03-15T22:00:40.821Z,100408.69
2019-03-15T22:03:10.696Z,100414.19
2019-03-15T22:05:40.549Z,100418.49
2019-03-15T22:08:10.804Z,100416.58
2019-03-15T22:10:40.924Z,100434.05
2019-03-15T22:13:11.178Z,100428.42
2019-03-15T22:15:41.267Z,100433.44
2019-03-15T22:18:11.550Z,100425.54
2019-03-15T22:20:42.012Z,100436.57
2019-03-15T22:23:12.241Z,100441.23
2019-03-15T22:25:43.132Z,100447.92
2019-03-15T22:28:12.995Z,100445.17
2019-03-15T22:30:42.847Z,100451.63
2019-03-15T22:33:12.798Z,100456.41
2019-03-15T22:35:42.699Z,100451.26
2019-03-15T22:38:25.214Z,100442.89
2019-03-15T22:40:44.318Z,100454.73
2019-03-15T22:43:14.150Z,100453.42
2019-03-15T22:45:44.008Z,100434.42
2019-03-15T22:48:13.879Z,100449.70
2019-03-15T22:50:43.773Z,100456.41
2019-03-15T22:53:13.706Z,100449.60
2019-03-15T22:55:43.627Z,100437.28
2019-03-15T22:58:13.594Z,100444.44
2019-03-15T23:00:44.110Z,100442.05
2019-03-15T23:03:14.110Z,100441.20
2019-03-15T23:05:44.075Z,100440.61
2019-03-15T23:08:14.010Z,100449.95
2019-03-15T23:10:47.012Z,100455.09
2019-03-15T23:13:15.530Z,100459.28
2019-03-15T23:15:45.397Z,100458.33
2019-03-15T23:18:15.279Z,100472.17
2019-03-15T23:20:45.062Z,100467.90
2019-03-15T23:23:23.840Z,100470.86
2019-03-15T23:25:46.840Z,100473.86
2019-03-15T23:28:16.945Z,100480.44
2019-03-15T23:30:46.875Z,100488.45
2019-03-15T23:33:16.691Z,100482.61
2019-03-15T23:35:53.917Z,100478.55
2019-03-15T23:38:18.108Z,100473.16
2019-03-15T23:40:47.980Z,100475.80
2019-03-15T23:43:17.905Z,100478.76
2019-03-15T23:45:47.849Z,100476.84
2019-03-15T23:48:18.241Z,100479.00
2019-03-15T23:50:48.207Z,100487.14
2019-03-15T23:53:18.066Z,100492.17
2019-03-15T23:55:48.026Z,100494.45
2019-03-15T23:58:19.028Z,100506.88
